sensor_id;sensor_type;location;lat;lon;timestamp;P1;durP1;ratioP1;P2;durP2;ratioP2
4307;SDS011;2167;53.448;9.984;2023-09-07T00:01:08;7.23;;;3.40;;
4307;SDS011;2167;53.448;9.984;2023-09-07T00:03:35;5.00;;;3.90;;
4307;SDS011;2167;53.448;9.984;2023-09-07T00:06:05;6.83;;;3.90;;
4307;SDS011;2167;53.448;9.984;2023-09-07T00:08:31;4.27;;;3.87;;
4307;SDS011;2167;53.448;9.984;2023-09-07T00:11:07;5.30;;;4.30;;
4307;SDS011;2167;53.448;9.984;2023-09-07T00:13:34;3.97;;;3.57;;
4307;SDS011;2167;53.448;9.984;2023-09-07T00:16:01;6.90;;;3.90;;
4307;SDS011;2167;53.448;9.984;2023-09-07T00:18:27;5.03;;;3.57;;
4307;SDS011;2167;53.448;9.984;2023-09-07T00:20:53;4.37;;;4.07;;
4307;SDS011;2167;53.448;9.984;2023-09-07T00:23:19;4.60;;;4.03;;
4307;SDS011;2167;53.448;9.984;2023-09-07T00:25:45;4.23;;;3.77;;
4307;SDS011;2167;53.448;9.984;2023-09-07T00:37:25;4.13;;;3.80;;
4307;SDS011;2167;53.448;9.984;2023-09-07T00:39:51;4.73;;;4.13;;
4307;SDS011;2167;53.448;9.984;2023-09-07T00:42:17;3.83;;;3.50;;
4307;SDS011;2167;53.448;9.984;2023-09-07T00:44:43;4.50;;;4.10;;
4307;SDS011;2167;53.448;9.984;2023-09-07T00:47:10;4.60;;;4.20;;
4307;SDS011;2167;53.448;9.984;2023-09-07T00:49:36;3.90;;;3.50;;
4307;SDS011;2167;53.448;9.984;2023-09-07T00:52:03;5.23;;;4.30;;
4307;SDS011;2167;53.448;9.984;2023-09-07T00:54:29;5.70;;;3.70;;
4307;SDS011;2167;53.448;9.984;2023-09-07T00:56:55;11.23;;;4.30;;
4307;SDS011;2167;53.448;9.984;2023-09-07T00:59:21;5.33;;;3.90;;
4307;SDS011;2167;53.448;9.984;2023-09-07T01:01:47;4.60;;;3.83;;
4307;SDS011;2167;53.448;9.984;2023-09-07T01:04:14;4.40;;;3.80;;
4307;SDS011;2167;53.448;9.984;2023-09-07T01:06:42;3.50;;;3.20;;
4307;SDS011;2167;53.448;9.984;2023-09-07T01:09:10;4.13;;;3.73;;
4307;SDS011;2167;53.448;9.984;2023-09-07T01:11:38;4.67;;;4.07;;
4307;SDS011;2167;53.448;9.984;2023-09-07T01:14:04;3.70;;;3.40;;
4307;SDS011;2167;53.448;9.984;2023-09-07T01:16:30;6.13;;;3.70;;
4307;SDS011;2167;53.448;9.984;2023-09-07T01:18:58;4.83;;;3.97;;
4307;SDS011;2167;53.448;9.984;2023-09-07T01:21:26;4.80;;;4.40;;
4307;SDS011;2167;53.448;9.984;2023-09-07T01:23:52;5.13;;;4.40;;
4307;SDS011;2167;53.448;9.984;2023-09-07T01:26:18;5.63;;;4.17;;
4307;SDS011;2167;53.448;9.984;2023-09-07T01:28:44;3.90;;;3.37;;
4307;SDS011;2167;53.448;9.984;2023-09-07T01:31:12;4.80;;;4.17;;
4307;SDS011;2167;53.448;9.984;2023-09-07T01:33:38;3.90;;;3.60;;
4307;SDS011;2167;53.448;9.984;2023-09-07T01:36:06;6.67;;;4.20;;
4307;SDS011;2167;53.448;9.984;2023-09-07T01:38:32;4.80;;;4.30;;
4307;SDS011;2167;53.448;9.984;2023-09-07T01:40:58;4.50;;;3.97;;
4307;SDS011;2167;53.448;9.984;2023-09-07T01:43:23;5.43;;;4.00;;
4307;SDS011;2167;53.448;9.984;2023-09-07T01:45:49;6.17;;;4.27;;
4307;SDS011;2167;53.448;9.984;2023-09-07T01:48:15;4.93;;;4.50;;
4307;SDS011;2167;53.448;9.984;2023-09-07T01:50:42;5.50;;;3.37;;
4307;SDS011;2167;53.448;9.984;2023-09-07T01:53:07;5.73;;;4.20;;
4307;SDS011;2167;53.448;9.984;2023-09-07T01:55:33;5.10;;;4.40;;
4307;SDS011;2167;53.448;9.984;2023-09-07T01:57:59;4.50;;;3.77;;
4307;SDS011;2167;53.448;9.984;2023-09-07T02:00:25;6.33;;;4.67;;
4307;SDS011;2167;53.448;9.984;2023-09-07T02:02:51;4.43;;;3.93;;
4307;SDS011;2167;53.448;9.984;2023-09-07T02:05:17;4.07;;;3.53;;
4307;SDS011;2167;53.448;9.984;2023-09-07T02:07:43;4.60;;;3.30;;
4307;SDS011;2167;53.448;9.984;2023-09-07T02:10:09;6.97;;;4.10;;
4307;SDS011;2167;53.448;9.984;2023-09-07T02:12:35;6.10;;;3.60;;
4307;SDS011;2167;53.448;9.984;2023-09-07T02:15:02;4.20;;;3.50;;
4307;SDS011;2167;53.448;9.984;2023-09-07T02:17:28;4.63;;;4.13;;
4307;SDS011;2167;53.448;9.984;2023-09-07T02:19:55;4.07;;;3.40;;
4307;SDS011;2167;53.448;9.984;2023-09-07T02:22:21;3.63;;;3.27;;
4307;SDS011;2167;53.448;9.984;2023-09-07T02:24:46;5.90;;;4.60;;
4307;SDS011;2167;53.448;9.984;2023-09-07T02:27:12;4.27;;;3.77;;
4307;SDS011;2167;53.448;9.984;2023-09-07T02:29:39;4.60;;;3.97;;
4307;SDS011;2167;53.448;9.984;2023-09-07T02:32:05;6.50;;;3.87;;
4307;SDS011;2167;53.448;9.984;2023-09-07T02:34:31;5.80;;;4.03;;
4307;SDS011;2167;53.448;9.984;2023-09-07T02:36:57;4.37;;;3.97;;
4307;SDS011;2167;53.448;9.984;2023-09-07T02:39:23;5.90;;;4.03;;
4307;SDS011;2167;53.448;9.984;2023-09-07T02:41:52;5.10;;;4.27;;
4307;SDS011;2167;53.448;9.984;2023-09-07T02:44:18;4.73;;;4.30;;
4307;SDS011;2167;53.448;9.984;2023-09-07T02:46:44;4.77;;;3.77;;
4307;SDS011;2167;53.448;9.984;2023-09-07T02:49:10;4.87;;;4.33;;
4307;SDS011;2167;53.448;9.984;2023-09-07T02:51:36;7.50;;;4.80;;
4307;SDS011;2167;53.448;9.984;2023-09-07T02:54:02;5.33;;;4.10;;
4307;SDS011;2167;53.448;9.984;2023-09-07T02:56:28;5.33;;;4.80;;
4307;SDS011;2167;53.448;9.984;2023-09-07T02:58:55;4.63;;;3.60;;
4307;SDS011;2167;53.448;9.984;2023-09-07T03:01:21;5.90;;;4.30;;
4307;SDS011;2167;53.448;9.984;2023-09-07T03:03:47;5.63;;;4.47;;
4307;SDS011;2167;53.448;9.984;2023-09-07T03:06:14;4.43;;;4.03;;
4307;SDS011;2167;53.448;9.984;2023-09-07T03:08:43;4.03;;;3.33;;
4307;SDS011;2167;53.448;9.984;2023-09-07T03:11:09;5.10;;;3.77;;
4307;SDS011;2167;53.448;9.984;2023-09-07T03:13:36;4.23;;;3.50;;
4307;SDS011;2167;53.448;9.984;2023-09-07T03:16:02;9.33;;;4.17;;
4307;SDS011;2167;53.448;9.984;2023-09-07T03:18:29;4.27;;;3.87;;
4307;SDS011;2167;53.448;9.984;2023-09-07T03:20:55;4.57;;;4.17;;
4307;SDS011;2167;53.448;9.984;2023-09-07T03:23:22;4.60;;;4.20;;
4307;SDS011;2167;53.448;9.984;2023-09-07T03:25:48;4.53;;;3.80;;
4307;SDS011;2167;53.448;9.984;2023-09-07T03:28:14;5.40;;;4.87;;
4307;SDS011;2167;53.448;9.984;2023-09-07T03:30:40;11.30;;;5.20;;
4307;SDS011;2167;53.448;9.984;2023-09-07T03:33:06;4.90;;;4.40;;
4307;SDS011;2167;53.448;9.984;2023-09-07T03:35:32;6.40;;;4.10;;
4307;SDS011;2167;53.448;9.984;2023-09-07T03:37:58;5.00;;;4.10;;
4307;SDS011;2167;53.448;9.984;2023-09-07T03:40:24;5.63;;;4.37;;
4307;SDS011;2167;53.448;9.984;2023-09-07T03:42:51;4.67;;;3.83;;
4307;SDS011;2167;53.448;9.984;2023-09-07T03:45:17;4.47;;;4.07;;
4307;SDS011;2167;53.448;9.984;2023-09-07T03:47:43;5.17;;;4.13;;
4307;SDS011;2167;53.448;9.984;2023-09-07T03:50:09;5.20;;;4.00;;
4307;SDS011;2167;53.448;9.984;2023-09-07T03:52:35;6.00;;;4.60;;
4307;SDS011;2167;53.448;9.984;2023-09-07T03:55:01;4.50;;;4.10;;
4307;SDS011;2167;53.448;9.984;2023-09-07T03:57:28;4.47;;;4.07;;
4307;SDS011;2167;53.448;9.984;2023-09-07T03:59:54;4.80;;;3.80;;
4307;SDS011;2167;53.448;9.984;2023-09-07T04:02:20;6.57;;;3.93;;
4307;SDS011;2167;53.448;9.984;2023-09-07T04:04:53;6.90;;;4.20;;
4307;SDS011;2167;53.448;9.984;2023-09-07T04:07:23;5.27;;;4.40;;
4307;SDS011;2167;53.448;9.984;2023-09-07T04:09:49;4.90;;;4.30;;
4307;SDS011;2167;53.448;9.984;2023-09-07T04:12:15;7.63;;;4.40;;
4307;SDS011;2167;53.448;9.984;2023-09-07T04:14:41;8.30;;;4.17;;
4307;SDS011;2167;53.448;9.984;2023-09-07T04:17:07;5.50;;;4.20;;
4307;SDS011;2167;53.448;9.984;2023-09-07T04:19:33;9.10;;;4.10;;
4307;SDS011;2167;53.448;9.984;2023-09-07T04:22:00;8.83;;;4.37;;
4307;SDS011;2167;53.448;9.984;2023-09-07T04:24:26;5.20;;;4.70;;
4307;SDS011;2167;53.448;9.984;2023-09-07T04:26:58;4.33;;;3.83;;
4307;SDS011;2167;53.448;9.984;2023-09-07T04:29:25;6.63;;;4.90;;
4307;SDS011;2167;53.448;9.984;2023-09-07T04:31:50;5.97;;;4.40;;
4307;SDS011;2167;53.448;9.984;2023-09-07T04:34:16;6.00;;;3.83;;
4307;SDS011;2167;53.448;9.984;2023-09-07T04:36:42;4.40;;;3.90;;
4307;SDS011;2167;53.448;9.984;2023-09-07T04:39:08;4.33;;;3.60;;
4307;SDS011;2167;53.448;9.984;2023-09-07T04:41:34;5.03;;;4.10;;
4307;SDS011;2167;53.448;9.984;2023-09-07T04:44:00;4.60;;;3.67;;
4307;SDS011;2167;53.448;9.984;2023-09-07T04:46:26;5.00;;;4.17;;
4307;SDS011;2167;53.448;9.984;2023-09-07T04:48:52;6.20;;;4.57;;
4307;SDS011;2167;53.448;9.984;2023-09-07T04:51:18;6.63;;;4.23;;
4307;SDS011;2167;53.448;9.984;2023-09-07T04:53:45;6.20;;;4.20;;
4307;SDS011;2167;53.448;9.984;2023-09-07T04:56:11;4.70;;;4.27;;
4307;SDS011;2167;53.448;9.984;2023-09-07T04:58:37;4.97;;;4.03;;
4307;SDS011;2167;53.448;9.984;2023-09-07T05:01:04;5.93;;;4.10;;
4307;SDS011;2167;53.448;9.984;2023-09-07T05:03:30;6.20;;;5.00;;
4307;SDS011;2167;53.448;9.984;2023-09-07T05:05:56;7.77;;;5.53;;
4307;SDS011;2167;53.448;9.984;2023-09-07T05:08:22;5.03;;;4.33;;
4307;SDS011;2167;53.448;9.984;2023-09-07T05:10:54;6.43;;;5.37;;
4307;SDS011;2167;53.448;9.984;2023-09-07T05:13:20;5.20;;;4.70;;
4307;SDS011;2167;53.448;9.984;2023-09-07T05:15:46;6.10;;;4.63;;
4307;SDS011;2167;53.448;9.984;2023-09-07T05:18:13;7.10;;;4.60;;
4307;SDS011;2167;53.448;9.984;2023-09-07T05:20:39;6.50;;;4.20;;
4307;SDS011;2167;53.448;9.984;2023-09-07T05:23:08;6.13;;;4.80;;
4307;SDS011;2167;53.448;9.984;2023-09-07T05:25:34;6.30;;;4.70;;
4307;SDS011;2167;53.448;9.984;2023-09-07T05:28:00;5.97;;;4.40;;
4307;SDS011;2167;53.448;9.984;2023-09-07T05:30:26;6.77;;;4.90;;
4307;SDS011;2167;53.448;9.984;2023-09-07T05:32:52;5.93;;;4.80;;
4307;SDS011;2167;53.448;9.984;2023-09-07T05:35:18;7.43;;;4.37;;
4307;SDS011;2167;53.448;9.984;2023-09-07T05:37:43;5.13;;;3.63;;
4307;SDS011;2167;53.448;9.984;2023-09-07T05:40:11;8.17;;;5.00;;
4307;SDS011;2167;53.448;9.984;2023-09-07T05:42:37;7.00;;;4.40;;
4307;SDS011;2167;53.448;9.984;2023-09-07T05:45:04;5.20;;;4.20;;
4307;SDS011;2167;53.448;9.984;2023-09-07T05:47:30;7.83;;;4.73;;
4307;SDS011;2167;53.448;9.984;2023-09-07T05:49:56;9.43;;;5.03;;
4307;SDS011;2167;53.448;9.984;2023-09-07T05:52:22;8.20;;;5.33;;
4307;SDS011;2167;53.448;9.984;2023-09-07T05:54:48;6.60;;;4.80;;
4307;SDS011;2167;53.448;9.984;2023-09-07T05:57:14;4.97;;;4.40;;
4307;SDS011;2167;53.448;9.984;2023-09-07T05:59:39;6.80;;;5.80;;
4307;SDS011;2167;53.448;9.984;2023-09-07T06:02:06;8.57;;;6.10;;
4307;SDS011;2167;53.448;9.984;2023-09-07T06:04:32;7.80;;;5.10;;
4307;SDS011;2167;53.448;9.984;2023-09-07T06:06:58;9.57;;;5.37;;
4307;SDS011;2167;53.448;9.984;2023-09-07T06:09:24;9.33;;;6.77;;
4307;SDS011;2167;53.448;9.984;2023-09-07T06:11:50;9.73;;;7.10;;
4307;SDS011;2167;53.448;9.984;2023-09-07T06:14:16;14.53;;;7.17;;
4307;SDS011;2167;53.448;9.984;2023-09-07T06:16:42;10.47;;;6.90;;
4307;SDS011;2167;53.448;9.984;2023-09-07T06:19:08;7.73;;;6.07;;
4307;SDS011;2167;53.448;9.984;2023-09-07T06:21:34;12.37;;;6.93;;
4307;SDS011;2167;53.448;9.984;2023-09-07T06:24:00;10.90;;;6.63;;
4307;SDS011;2167;53.448;9.984;2023-09-07T06:26:26;8.00;;;6.17;;
4307;SDS011;2167;53.448;9.984;2023-09-07T06:28:52;11.13;;;6.90;;
4307;SDS011;2167;53.448;9.984;2023-09-07T06:31:17;10.87;;;7.27;;
4307;SDS011;2167;53.448;9.984;2023-09-07T06:33:43;10.43;;;7.20;;
4307;SDS011;2167;53.448;9.984;2023-09-07T06:36:09;6.80;;;6.00;;
4307;SDS011;2167;53.448;9.984;2023-09-07T06:38:35;9.33;;;6.47;;
4307;SDS011;2167;53.448;9.984;2023-09-07T06:41:01;7.10;;;5.63;;
4307;SDS011;2167;53.448;9.984;2023-09-07T06:43:27;7.63;;;6.83;;
4307;SDS011;2167;53.448;9.984;2023-09-07T06:46:01;7.10;;;6.20;;
4307;SDS011;2167;53.448;9.984;2023-09-07T06:48:27;10.20;;;7.03;;
4307;SDS011;2167;53.448;9.984;2023-09-07T06:50:53;7.97;;;7.10;;
4307;SDS011;2167;53.448;9.984;2023-09-07T06:53:19;8.57;;;6.53;;
4307;SDS011;2167;53.448;9.984;2023-09-07T06:55:45;8.77;;;7.00;;
4307;SDS011;2167;53.448;9.984;2023-09-07T06:58:11;7.73;;;6.93;;
4307;SDS011;2167;53.448;9.984;2023-09-07T07:00:37;6.20;;;5.43;;
4307;SDS011;2167;53.448;9.984;2023-09-07T07:03:03;8.83;;;6.10;;
4307;SDS011;2167;53.448;9.984;2023-09-07T07:05:29;10.33;;;6.00;;
4307;SDS011;2167;53.448;9.984;2023-09-07T07:07:55;8.73;;;6.30;;
4307;SDS011;2167;53.448;9.984;2023-09-07T07:10:21;8.00;;;7.10;;
4307;SDS011;2167;53.448;9.984;2023-09-07T07:12:47;16.20;;;6.60;;
4307;SDS011;2167;53.448;9.984;2023-09-07T07:15:13;8.00;;;6.07;;
4307;SDS011;2167;53.448;9.984;2023-09-07T07:17:39;9.57;;;6.03;;
4307;SDS011;2167;53.448;9.984;2023-09-07T07:20:05;8.57;;;6.70;;
4307;SDS011;2167;53.448;9.984;2023-09-07T07:22:32;10.30;;;6.93;;
4307;SDS011;2167;53.448;9.984;2023-09-07T07:25:00;9.50;;;6.73;;
4307;SDS011;2167;53.448;9.984;2023-09-07T07:27:30;10.10;;;8.60;;
4307;SDS011;2167;53.448;9.984;2023-09-07T07:29:56;9.47;;;6.70;;
4307;SDS011;2167;53.448;9.984;2023-09-07T07:32:22;11.17;;;6.50;;
4307;SDS011;2167;53.448;9.984;2023-09-07T07:34:48;7.13;;;6.30;;
4307;SDS011;2167;53.448;9.984;2023-09-07T07:37:14;8.00;;;7.20;;
4307;SDS011;2167;53.448;9.984;2023-09-07T07:39:40;8.50;;;6.17;;
4307;SDS011;2167;53.448;9.984;2023-09-07T07:42:06;10.23;;;6.53;;
4307;SDS011;2167;53.448;9.984;2023-09-07T07:44:32;8.63;;;6.77;;
4307;SDS011;2167;53.448;9.984;2023-09-07T07:46:58;17.10;;;8.00;;
4307;SDS011;2167;53.448;9.984;2023-09-07T07:49:24;7.63;;;5.83;;
4307;SDS011;2167;53.448;9.984;2023-09-07T07:51:50;8.40;;;6.50;;
4307;SDS011;2167;53.448;9.984;2023-09-07T07:54:16;8.03;;;7.27;;
4307;SDS011;2167;53.448;9.984;2023-09-07T07:56:42;22.73;;;9.50;;
4307;SDS011;2167;53.448;9.984;2023-09-07T07:59:08;12.23;;;7.60;;
4307;SDS011;2167;53.448;9.984;2023-09-07T08:01:34;7.90;;;7.07;;
4307;SDS011;2167;53.448;9.984;2023-09-07T08:04:01;9.00;;;7.00;;
4307;SDS011;2167;53.448;9.984;2023-09-07T08:06:27;11.13;;;8.07;;
4307;SDS011;2167;53.448;9.984;2023-09-07T08:08:53;7.13;;;6.40;;
4307;SDS011;2167;53.448;9.984;2023-09-07T08:11:19;9.93;;;7.97;;
4307;SDS011;2167;53.448;9.984;2023-09-07T08:13:46;8.63;;;6.60;;
4307;SDS011;2167;53.448;9.984;2023-09-07T08:16:12;12.83;;;8.10;;
4307;SDS011;2167;53.448;9.984;2023-09-07T08:18:38;10.97;;;7.40;;
4307;SDS011;2167;53.448;9.984;2023-09-07T08:21:05;9.50;;;7.57;;
4307;SDS011;2167;53.448;9.984;2023-09-07T08:23:31;8.67;;;7.23;;
4307;SDS011;2167;53.448;9.984;2023-09-07T08:25:57;9.03;;;6.80;;
4307;SDS011;2167;53.448;9.984;2023-09-07T08:28:23;9.30;;;8.10;;
4307;SDS011;2167;53.448;9.984;2023-09-07T08:30:50;7.77;;;6.90;;
4307;SDS011;2167;53.448;9.984;2023-09-07T08:33:20;8.83;;;6.60;;
4307;SDS011;2167;53.448;9.984;2023-09-07T08:35:53;9.40;;;7.00;;
4307;SDS011;2167;53.448;9.984;2023-09-07T08:38:20;9.60;;;7.20;;
4307;SDS011;2167;53.448;9.984;2023-09-07T08:40:49;11.80;;;7.13;;
4307;SDS011;2167;53.448;9.984;2023-09-07T08:43:16;11.17;;;7.30;;
4307;SDS011;2167;53.448;9.984;2023-09-07T08:45:46;8.97;;;7.17;;
4307;SDS011;2167;53.448;9.984;2023-09-07T08:48:14;6.97;;;6.27;;
4307;SDS011;2167;53.448;9.984;2023-09-07T08:50:42;9.87;;;6.57;;
4307;SDS011;2167;53.448;9.984;2023-09-07T08:53:14;7.80;;;6.40;;
4307;SDS011;2167;53.448;9.984;2023-09-07T08:55:40;6.60;;;6.00;;
4307;SDS011;2167;53.448;9.984;2023-09-07T08:58:06;7.90;;;5.83;;
4307;SDS011;2167;53.448;9.984;2023-09-07T09:00:32;13.60;;;6.07;;
4307;SDS011;2167;53.448;9.984;2023-09-07T09:02:59;7.30;;;6.20;;
4307;SDS011;2167;53.448;9.984;2023-09-07T09:05:25;6.30;;;5.70;;
4307;SDS011;2167;53.448;9.984;2023-09-07T09:08:00;8.33;;;6.73;;
4307;SDS011;2167;53.448;9.984;2023-09-07T09:10:26;8.00;;;5.77;;
4307;SDS011;2167;53.448;9.984;2023-09-07T09:12:52;8.70;;;6.50;;
4307;SDS011;2167;53.448;9.984;2023-09-07T09:15:18;7.30;;;6.20;;
4307;SDS011;2167;53.448;9.984;2023-09-07T09:17:44;12.23;;;6.40;;
4307;SDS011;2167;53.448;9.984;2023-09-07T09:20:23;7.20;;;6.27;;
4307;SDS011;2167;53.448;9.984;2023-09-07T09:22:52;10.53;;;6.17;;
4307;SDS011;2167;53.448;9.984;2023-09-07T09:25:19;5.90;;;5.10;;
4307;SDS011;2167;53.448;9.984;2023-09-07T09:27:46;7.00;;;5.30;;
4307;SDS011;2167;53.448;9.984;2023-09-07T09:30:12;8.07;;;7.00;;
4307;SDS011;2167;53.448;9.984;2023-09-07T09:32:40;7.53;;;5.87;;
4307;SDS011;2167;53.448;9.984;2023-09-07T09:35:06;7.43;;;5.33;;
4307;SDS011;2167;53.448;9.984;2023-09-07T09:37:34;6.83;;;5.93;;
4307;SDS011;2167;53.448;9.984;2023-09-07T09:40:00;12.30;;;6.20;;
4307;SDS011;2167;53.448;9.984;2023-09-07T09:42:27;7.63;;;5.73;;
4307;SDS011;2167;53.448;9.984;2023-09-07T09:44:54;7.17;;;5.63;;
4307;SDS011;2167;53.448;9.984;2023-09-07T09:47:21;5.80;;;5.20;;
4307;SDS011;2167;53.448;9.984;2023-09-07T09:49:47;6.20;;;5.60;;
4307;SDS011;2167;53.448;9.984;2023-09-07T09:52:14;8.60;;;5.60;;
4307;SDS011;2167;53.448;9.984;2023-09-07T09:54:41;7.10;;;5.37;;
4307;SDS011;2167;53.448;9.984;2023-09-07T09:57:08;8.47;;;4.90;;
4307;SDS011;2167;53.448;9.984;2023-09-07T09:59:34;6.30;;;5.17;;
4307;SDS011;2167;53.448;9.984;2023-09-07T10:02:00;6.10;;;5.07;;
4307;SDS011;2167;53.448;9.984;2023-09-07T10:04:27;7.50;;;5.77;;
4307;SDS011;2167;53.448;9.984;2023-09-07T10:07:00;6.47;;;5.60;;
4307;SDS011;2167;53.448;9.984;2023-09-07T10:09:32;6.70;;;5.50;;
4307;SDS011;2167;53.448;9.984;2023-09-07T10:11:58;7.50;;;5.93;;
4307;SDS011;2167;53.448;9.984;2023-09-07T10:14:25;6.73;;;5.70;;
4307;SDS011;2167;53.448;9.984;2023-09-07T10:16:51;7.83;;;6.00;;
4307;SDS011;2167;53.448;9.984;2023-09-07T10:19:23;8.13;;;5.73;;
4307;SDS011;2167;53.448;9.984;2023-09-07T10:21:50;6.13;;;5.53;;
4307;SDS011;2167;53.448;9.984;2023-09-07T10:24:23;7.93;;;5.73;;
4307;SDS011;2167;53.448;9.984;2023-09-07T10:26:57;9.83;;;5.90;;
4307;SDS011;2167;53.448;9.984;2023-09-07T10:29:23;4.97;;;4.50;;
4307;SDS011;2167;53.448;9.984;2023-09-07T10:31:52;7.07;;;5.17;;
4307;SDS011;2167;53.448;9.984;2023-09-07T10:34:18;5.30;;;4.80;;
4307;SDS011;2167;53.448;9.984;2023-09-07T10:36:44;5.57;;;5.07;;
4307;SDS011;2167;53.448;9.984;2023-09-07T10:39:11;7.20;;;5.60;;
4307;SDS011;2167;53.448;9.984;2023-09-07T10:41:44;6.83;;;5.00;;
4307;SDS011;2167;53.448;9.984;2023-09-07T10:44:11;6.53;;;4.90;;
4307;SDS011;2167;53.448;9.984;2023-09-07T10:46:38;10.00;;;5.10;;
4307;SDS011;2167;53.448;9.984;2023-09-07T10:49:06;6.73;;;5.50;;
4307;SDS011;2167;53.448;9.984;2023-09-07T10:51:39;7.73;;;5.37;;
4307;SDS011;2167;53.448;9.984;2023-09-07T10:54:13;5.73;;;4.93;;
4307;SDS011;2167;53.448;9.984;2023-09-07T10:56:39;5.17;;;4.67;;
4307;SDS011;2167;53.448;9.984;2023-09-07T10:59:05;5.67;;;4.60;;
4307;SDS011;2167;53.448;9.984;2023-09-07T11:01:31;9.23;;;6.30;;
4307;SDS011;2167;53.448;9.984;2023-09-07T11:03:57;10.33;;;5.30;;
4307;SDS011;2167;53.448;9.984;2023-09-07T11:06:23;6.97;;;4.87;;
4307;SDS011;2167;53.448;9.984;2023-09-07T11:08:49;8.47;;;5.73;;
4307;SDS011;2167;53.448;9.984;2023-09-07T11:11:15;6.20;;;4.03;;
4307;SDS011;2167;53.448;9.984;2023-09-07T11:13:42;4.90;;;4.50;;
4307;SDS011;2167;53.448;9.984;2023-09-07T11:16:09;5.87;;;4.37;;
4307;SDS011;2167;53.448;9.984;2023-09-07T11:18:35;5.07;;;4.47;;
4307;SDS011;2167;53.448;9.984;2023-09-07T11:21:02;5.30;;;4.70;;
4307;SDS011;2167;53.448;9.984;2023-09-07T11:23:29;5.53;;;4.47;;
4307;SDS011;2167;53.448;9.984;2023-09-07T11:26:01;6.67;;;5.40;;
4307;SDS011;2167;53.448;9.984;2023-09-07T11:28:29;7.47;;;4.87;;
4307;SDS011;2167;53.448;9.984;2023-09-07T11:30:55;12.10;;;5.50;;
4307;SDS011;2167;53.448;9.984;2023-09-07T11:33:22;5.80;;;4.80;;
4307;SDS011;2167;53.448;9.984;2023-09-07T11:35:48;5.80;;;4.47;;
4307;SDS011;2167;53.448;9.984;2023-09-07T11:38:15;5.77;;;4.57;;
4307;SDS011;2167;53.448;9.984;2023-09-07T11:40:44;7.77;;;5.00;;
4307;SDS011;2167;53.448;9.984;2023-09-07T11:43:11;6.57;;;5.27;;
4307;SDS011;2167;53.448;9.984;2023-09-07T11:45:38;6.40;;;5.33;;
4307;SDS011;2167;53.448;9.984;2023-09-07T11:48:04;6.13;;;4.63;;
4307;SDS011;2167;53.448;9.984;2023-09-07T11:50:30;5.83;;;5.20;;
4307;SDS011;2167;53.448;9.984;2023-09-07T11:52:56;4.93;;;4.30;;
4307;SDS011;2167;53.448;9.984;2023-09-07T11:55:22;4.50;;;4.00;;
4307;SDS011;2167;53.448;9.984;2023-09-07T11:57:48;6.47;;;4.60;;
4307;SDS011;2167;53.448;9.984;2023-09-07T12:00:14;5.33;;;4.80;;
4307;SDS011;2167;53.448;9.984;2023-09-07T12:02:40;5.87;;;4.87;;
4307;SDS011;2167;53.448;9.984;2023-09-07T12:05:07;5.80;;;4.20;;
4307;SDS011;2167;53.448;9.984;2023-09-07T12:07:34;5.07;;;4.50;;
4307;SDS011;2167;53.448;9.984;2023-09-07T12:10:00;7.57;;;4.20;;
4307;SDS011;2167;53.448;9.984;2023-09-07T12:12:26;5.90;;;4.10;;
4307;SDS011;2167;53.448;9.984;2023-09-07T12:14:52;5.50;;;4.37;;
4307;SDS011;2167;53.448;9.984;2023-09-07T12:17:18;4.83;;;4.33;;
4307;SDS011;2167;53.448;9.984;2023-09-07T12:19:47;5.27;;;4.17;;
4307;SDS011;2167;53.448;9.984;2023-09-07T12:22:14;5.73;;;4.47;;
4307;SDS011;2167;53.448;9.984;2023-09-07T12:24:40;7.43;;;4.60;;
4307;SDS011;2167;53.448;9.984;2023-09-07T12:27:06;6.40;;;4.20;;
4307;SDS011;2167;53.448;9.984;2023-09-07T12:29:32;4.90;;;4.03;;
4307;SDS011;2167;53.448;9.984;2023-09-07T12:31:58;5.27;;;3.77;;
4307;SDS011;2167;53.448;9.984;2023-09-07T12:34:24;4.37;;;3.97;;
4307;SDS011;2167;53.448;9.984;2023-09-07T12:36:50;5.13;;;4.40;;
4307;SDS011;2167;53.448;9.984;2023-09-07T12:39:16;4.53;;;4.07;;
4307;SDS011;2167;53.448;9.984;2023-09-07T12:41:42;6.13;;;4.63;;
4307;SDS011;2167;53.448;9.984;2023-09-07T12:44:08;4.90;;;3.10;;
4307;SDS011;2167;53.448;9.984;2023-09-07T12:46:34;9.13;;;4.30;;
4307;SDS011;2167;53.448;9.984;2023-09-07T12:49:02;4.60;;;4.13;;
4307;SDS011;2167;53.448;9.984;2023-09-07T12:51:28;6.00;;;4.33;;
4307;SDS011;2167;53.448;9.984;2023-09-07T12:53:54;4.20;;;3.70;;
4307;SDS011;2167;53.448;9.984;2023-09-07T12:56:20;6.30;;;4.00;;
4307;SDS011;2167;53.448;9.984;2023-09-07T12:58:46;6.63;;;4.63;;
4307;SDS011;2167;53.448;9.984;2023-09-07T13:01:12;4.50;;;3.27;;
4307;SDS011;2167;53.448;9.984;2023-09-07T13:03:40;4.20;;;3.60;;
4307;SDS011;2167;53.448;9.984;2023-09-07T13:06:06;4.50;;;3.80;;
4307;SDS011;2167;53.448;9.984;2023-09-07T13:08:32;4.20;;;3.80;;
4307;SDS011;2167;53.448;9.984;2023-09-07T13:10:58;4.10;;;3.70;;
4307;SDS011;2167;53.448;9.984;2023-09-07T13:13:24;6.00;;;3.77;;
4307;SDS011;2167;53.448;9.984;2023-09-07T13:15:57;5.50;;;3.93;;
4307;SDS011;2167;53.448;9.984;2023-09-07T13:18:24;4.10;;;3.47;;
4307;SDS011;2167;53.448;9.984;2023-09-07T13:20:50;8.93;;;4.40;;
4307;SDS011;2167;53.448;9.984;2023-09-07T13:23:25;5.00;;;4.07;;
4307;SDS011;2167;53.448;9.984;2023-09-07T13:25:51;8.70;;;3.87;;
4307;SDS011;2167;53.448;9.984;2023-09-07T13:28:17;5.17;;;4.67;;
4307;SDS011;2167;53.448;9.984;2023-09-07T13:30:43;6.80;;;4.40;;
4307;SDS011;2167;53.448;9.984;2023-09-07T13:33:09;5.43;;;3.80;;
4307;SDS011;2167;53.448;9.984;2023-09-07T13:35:35;4.93;;;4.03;;
4307;SDS011;2167;53.448;9.984;2023-09-07T13:38:02;4.60;;;3.87;;
4307;SDS011;2167;53.448;9.984;2023-09-07T13:40:28;3.80;;;3.30;;
4307;SDS011;2167;53.448;9.984;2023-09-07T13:42:55;7.63;;;4.77;;
4307;SDS011;2167;53.448;9.984;2023-09-07T13:45:21;5.10;;;3.80;;
4307;SDS011;2167;53.448;9.984;2023-09-07T13:47:47;5.60;;;3.83;;
4307;SDS011;2167;53.448;9.984;2023-09-07T13:50:13;3.47;;;3.17;;
4307;SDS011;2167;53.448;9.984;2023-09-07T13:52:41;4.23;;;3.23;;
4307;SDS011;2167;53.448;9.984;2023-09-07T13:55:07;4.73;;;3.70;;
4307;SDS011;2167;53.448;9.984;2023-09-07T13:57:33;3.60;;;3.30;;
4307;SDS011;2167;53.448;9.984;2023-09-07T14:00:00;4.67;;;3.47;;
4307;SDS011;2167;53.448;9.984;2023-09-07T14:02:26;5.90;;;3.57;;
4307;SDS011;2167;53.448;9.984;2023-09-07T14:04:52;4.17;;;3.77;;
4307;SDS011;2167;53.448;9.984;2023-09-07T14:07:18;4.83;;;3.70;;
4307;SDS011;2167;53.448;9.984;2023-09-07T14:09:44;3.70;;;3.20;;
4307;SDS011;2167;53.448;9.984;2023-09-07T14:12:10;130.57;;;17.00;;
4307;SDS011;2167;53.448;9.984;2023-09-07T14:14:37;6.60;;;3.70;;
4307;SDS011;2167;53.448;9.984;2023-09-07T14:17:03;7.70;;;3.53;;
4307;SDS011;2167;53.448;9.984;2023-09-07T14:19:30;3.67;;;3.00;;
4307;SDS011;2167;53.448;9.984;2023-09-07T14:21:57;4.60;;;3.60;;
4307;SDS011;2167;53.448;9.984;2023-09-07T14:24:23;5.07;;;3.57;;
4307;SDS011;2167;53.448;9.984;2023-09-07T14:26:49;4.87;;;3.10;;
4307;SDS011;2167;53.448;9.984;2023-09-07T14:29:15;3.43;;;3.10;;
4307;SDS011;2167;53.448;9.984;2023-09-07T14:31:41;4.10;;;3.20;;
4307;SDS011;2167;53.448;9.984;2023-09-07T14:34:08;3.83;;;3.43;;
4307;SDS011;2167;53.448;9.984;2023-09-07T14:36:34;6.80;;;3.50;;
4307;SDS011;2167;53.448;9.984;2023-09-07T14:39:00;5.13;;;3.33;;
4307;SDS011;2167;53.448;9.984;2023-09-07T14:41:27;5.00;;;3.80;;
4307;SDS011;2167;53.448;9.984;2023-09-07T14:43:55;6.73;;;3.40;;
4307;SDS011;2167;53.448;9.984;2023-09-07T14:46:21;5.67;;;3.70;;
4307;SDS011;2167;53.448;9.984;2023-09-07T14:48:49;5.83;;;3.00;;
4307;SDS011;2167;53.448;9.984;2023-09-07T14:51:15;5.00;;;3.37;;
4307;SDS011;2167;53.448;9.984;2023-09-07T14:53:41;5.10;;;3.77;;
4307;SDS011;2167;53.448;9.984;2023-09-07T14:56:08;4.60;;;3.20;;
4307;SDS011;2167;53.448;9.984;2023-09-07T14:58:34;5.97;;;3.40;;
4307;SDS011;2167;53.448;9.984;2023-09-07T15:01:00;3.93;;;3.13;;
4307;SDS011;2167;53.448;9.984;2023-09-07T15:03:27;9.73;;;3.57;;
4307;SDS011;2167;53.448;9.984;2023-09-07T15:05:53;3.33;;;3.03;;
4307;SDS011;2167;53.448;9.984;2023-09-07T15:08:19;4.40;;;3.27;;
4307;SDS011;2167;53.448;9.984;2023-09-07T15:10:45;6.90;;;3.63;;
4307;SDS011;2167;53.448;9.984;2023-09-07T15:13:11;8.03;;;3.63;;
4307;SDS011;2167;53.448;9.984;2023-09-07T15:15:37;5.37;;;3.47;;
4307;SDS011;2167;53.448;9.984;2023-09-07T15:18:05;3.93;;;3.50;;
4307;SDS011;2167;53.448;9.984;2023-09-07T15:20:31;8.57;;;3.37;;